sensor_id;sensor_type;location;lat;lon;timestamp;P1;durP1;ratioP1;P2;durP2;ratioP2
81934;SDS011;71405;47.674;-2.050;2023-07-20T00:01:11;8.07;;;4.05;;
81934;SDS011;71405;47.674;-2.050;2023-07-20T00:03:37;9.13;;;4.15;;
81934;SDS011;71405;47.674;-2.050;2023-07-20T00:06:03;9.07;;;4.47;;
81934;SDS011;71405;47.674;-2.050;2023-07-20T00:08:30;9.57;;;4.10;;
81934;SDS011;71405;47.674;-2.050;2023-07-20T00:10:56;7.57;;;3.70;;
81934;SDS011;71405;47.674;-2.050;2023-07-20T00:13:21;9.48;;;3.80;;
81934;SDS011;71405;47.674;-2.050;2023-07-20T00:15:47;7.88;;;3.63;;
81934;SDS011;71405;47.674;-2.050;2023-07-20T00:18:13;9.90;;;4.40;;
81934;SDS011;71405;47.674;-2.050;2023-07-20T00:20:39;9.23;;;3.88;;
81934;SDS011;71405;47.674;-2.050;2023-07-20T00:23:05;8.90;;;3.50;;
81934;SDS011;71405;47.674;-2.050;2023-07-20T00:25:31;8.52;;;4.00;;
81934;SDS011;71405;47.674;-2.050;2023-07-20T00:27:58;8.65;;;3.42;;
81934;SDS011;71405;47.674;-2.050;2023-07-20T00:30:24;8.52;;;3.53;;
81934;SDS011;71405;47.674;-2.050;2023-07-20T00:32:49;6.38;;;3.03;;
81934;SDS011;71405;47.674;-2.050;2023-07-20T00:35:15;6.82;;;3.10;;
81934;SDS011;71405;47.674;-2.050;2023-07-20T00:37:41;8.38;;;3.55;;
81934;SDS011;71405;47.674;-2.050;2023-07-20T00:40:07;7.78;;;3.28;;
81934;SDS011;71405;47.674;-2.050;2023-07-20T00:42:33;8.15;;;3.30;;
81934;SDS011;71405;47.674;-2.050;2023-07-20T00:44:59;7.35;;;3.28;;
81934;SDS011;71405;47.674;-2.050;2023-07-20T00:47:25;8.60;;;3.42;;
81934;SDS011;71405;47.674;-2.050;2023-07-20T00:49:52;7.55;;;3.30;;
81934;SDS011;71405;47.674;-2.050;2023-07-20T00:52:19;7.95;;;3.42;;
81934;SDS011;71405;47.674;-2.050;2023-07-20T00:54:47;6.93;;;3.03;;
81934;SDS011;71405;47.674;-2.050;2023-07-20T00:57:16;7.32;;;3.00;;
81934;SDS011;71405;47.674;-2.050;2023-07-20T00:59:43;9.25;;;3.13;;
81934;SDS011;71405;47.674;-2.050;2023-07-20T01:02:09;6.95;;;3.00;;
81934;SDS011;71405;47.674;-2.050;2023-07-20T01:04:35;7.22;;;3.00;;
81934;SDS011;71405;47.674;-2.050;2023-07-20T01:09:48;6.78;;;2.75;;
81934;SDS011;71405;47.674;-2.050;2023-07-20T01:12:25;6.70;;;3.35;;
81934;SDS011;71405;47.674;-2.050;2023-07-20T01:14:55;7.43;;;3.40;;
81934;SDS011;71405;47.674;-2.050;2023-07-20T01:17:21;7.45;;;3.20;;
81934;SDS011;71405;47.674;-2.050;2023-07-20T01:19:49;6.93;;;2.90;;
81934;SDS011;71405;47.674;-2.050;2023-07-20T01:25:34;6.18;;;2.53;;
81934;SDS011;71405;47.674;-2.050;2023-07-20T01:28:28;7.13;;;2.88;;
81934;SDS011;71405;47.674;-2.050;2023-07-20T01:33:46;8.68;;;2.80;;
81934;SDS011;71405;47.674;-2.050;2023-07-20T01:36:13;6.60;;;2.85;;
81934;SDS011;71405;47.674;-2.050;2023-07-20T01:38:41;7.05;;;2.58;;
81934;SDS011;71405;47.674;-2.050;2023-07-20T01:41:07;5.63;;;2.50;;
81934;SDS011;71405;47.674;-2.050;2023-07-20T01:43:34;5.68;;;2.90;;
81934;SDS011;71405;47.674;-2.050;2023-07-20T01:45:59;7.20;;;2.58;;
81934;SDS011;71405;47.674;-2.050;2023-07-20T01:48:25;7.28;;;2.60;;
81934;SDS011;71405;47.674;-2.050;2023-07-20T01:50:51;6.97;;;2.58;;
81934;SDS011;71405;47.674;-2.050;2023-07-20T01:53:17;5.05;;;2.33;;
81934;SDS011;71405;47.674;-2.050;2023-07-20T01:55:43;6.38;;;2.67;;
81934;SDS011;71405;47.674;-2.050;2023-07-20T01:58:08;5.32;;;2.40;;
81934;SDS011;71405;47.674;-2.050;2023-07-20T02:00:36;6.50;;;2.50;;
81934;SDS011;71405;47.674;-2.050;2023-07-20T02:03:02;7.30;;;2.92;;
81934;SDS011;71405;47.674;-2.050;2023-07-20T02:05:28;5.45;;;2.42;;
81934;SDS011;71405;47.674;-2.050;2023-07-20T02:07:53;5.95;;;2.70;;
81934;SDS011;71405;47.674;-2.050;2023-07-20T02:10:19;6.00;;;2.25;;
81934;SDS011;71405;47.674;-2.050;2023-07-20T02:12:45;6.93;;;2.50;;
81934;SDS011;71405;47.674;-2.050;2023-07-20T02:15:11;6.63;;;2.60;;
81934;SDS011;71405;47.674;-2.050;2023-07-20T02:17:38;6.32;;;2.20;;
81934;SDS011;71405;47.674;-2.050;2023-07-20T02:20:06;5.65;;;2.60;;
81934;SDS011;71405;47.674;-2.050;2023-07-20T02:22:35;5.10;;;2.28;;
81934;SDS011;71405;47.674;-2.050;2023-07-20T02:25:01;6.55;;;2.53;;
81934;SDS011;71405;47.674;-2.050;2023-07-20T02:27:27;5.75;;;2.38;;
81934;SDS011;71405;47.674;-2.050;2023-07-20T02:29:52;7.88;;;2.40;;
81934;SDS011;71405;47.674;-2.050;2023-07-20T02:32:18;4.82;;;2.22;;
81934;SDS011;71405;47.674;-2.050;2023-07-20T02:34:43;5.72;;;2.30;;
81934;SDS011;71405;47.674;-2.050;2023-07-20T02:37:09;5.10;;;2.20;;
81934;SDS011;71405;47.674;-2.050;2023-07-20T02:39:37;6.40;;;2.42;;
81934;SDS011;71405;47.674;-2.050;2023-07-20T02:42:04;6.35;;;2.40;;
81934;SDS011;71405;47.674;-2.050;2023-07-20T02:44:29;5.85;;;2.50;;
81934;SDS011;71405;47.674;-2.050;2023-07-20T02:46:55;4.85;;;2.22;;
81934;SDS011;71405;47.674;-2.050;2023-07-20T02:49:21;6.00;;;2.42;;
81934;SDS011;71405;47.674;-2.050;2023-07-20T02:51:47;5.05;;;2.33;;
81934;SDS011;71405;47.674;-2.050;2023-07-20T02:54:12;6.85;;;2.20;;
81934;SDS011;71405;47.674;-2.050;2023-07-20T02:56:38;5.35;;;2.20;;
81934;SDS011;71405;47.674;-2.050;2023-07-20T02:59:03;5.97;;;2.33;;
81934;SDS011;71405;47.674;-2.050;2023-07-20T03:01:29;5.25;;;2.10;;
81934;SDS011;71405;47.674;-2.050;2023-07-20T03:03:55;6.35;;;2.70;;
81934;SDS011;71405;47.674;-2.050;2023-07-20T03:06:21;5.68;;;2.20;;
81934;SDS011;71405;47.674;-2.050;2023-07-20T03:08:47;5.28;;;2.63;;
81934;SDS011;71405;47.674;-2.050;2023-07-20T03:11:14;5.30;;;2.30;;
81934;SDS011;71405;47.674;-2.050;2023-07-20T03:13:42;5.53;;;2.50;;
81934;SDS011;71405;47.674;-2.050;2023-07-20T03:16:08;5.50;;;2.30;;
81934;SDS011;71405;47.674;-2.050;2023-07-20T03:18:39;5.68;;;2.40;;
81934;SDS011;71405;47.674;-2.050;2023-07-20T03:21:05;4.88;;;2.20;;
81934;SDS011;71405;47.674;-2.050;2023-07-20T03:23:31;4.97;;;2.13;;
81934;SDS011;71405;47.674;-2.050;2023-07-20T03:25:57;5.90;;;2.70;;
81934;SDS011;71405;47.674;-2.050;2023-07-20T03:28:23;6.45;;;2.20;;
81934;SDS011;71405;47.674;-2.050;2023-07-20T03:30:55;5.60;;;2.10;;
81934;SDS011;71405;47.674;-2.050;2023-07-20T03:33:22;5.70;;;2.33;;
81934;SDS011;71405;47.674;-2.050;2023-07-20T03:35:50;5.28;;;2.28;;
81934;SDS011;71405;47.674;-2.050;2023-07-20T03:38:15;5.95;;;2.30;;
81934;SDS011;71405;47.674;-2.050;2023-07-20T03:40:51;5.15;;;2.13;;
81934;SDS011;71405;47.674;-2.050;2023-07-20T03:43:23;6.90;;;2.30;;
81934;SDS011;71405;47.674;-2.050;2023-07-20T03:45:50;5.43;;;2.00;;
81934;SDS011;71405;47.674;-2.050;2023-07-20T03:48:18;5.35;;;2.38;;
81934;SDS011;71405;47.674;-2.050;2023-07-20T03:50:45;6.03;;;2.60;;
81934;SDS011;71405;47.674;-2.050;2023-07-20T03:53:11;5.50;;;2.58;;
81934;SDS011;71405;47.674;-2.050;2023-07-20T03:55:37;5.45;;;2.17;;
81934;SDS011;71405;47.674;-2.050;2023-07-20T03:58:05;5.63;;;2.10;;
81934;SDS011;71405;47.674;-2.050;2023-07-20T04:00:31;4.88;;;2.05;;
81934;SDS011;71405;47.674;-2.050;2023-07-20T04:02:57;5.82;;;2.10;;
81934;SDS011;71405;47.674;-2.050;2023-07-20T04:05:24;4.60;;;2.13;;
81934;SDS011;71405;47.674;-2.050;2023-07-20T04:07:50;4.15;;;1.90;;
81934;SDS011;71405;47.674;-2.050;2023-07-20T04:10:16;4.55;;;2.10;;
81934;SDS011;71405;47.674;-2.050;2023-07-20T04:12:43;4.13;;;1.90;;
81934;SDS011;71405;47.674;-2.050;2023-07-20T04:15:09;6.50;;;2.42;;
81934;SDS011;71405;47.674;-2.050;2023-07-20T04:17:35;6.13;;;2.25;;
81934;SDS011;71405;47.674;-2.050;2023-07-20T04:20:01;6.25;;;2.30;;
81934;SDS011;71405;47.674;-2.050;2023-07-20T04:22:28;5.20;;;2.20;;
81934;SDS011;71405;47.674;-2.050;2023-07-20T04:24:53;5.82;;;2.25;;
81934;SDS011;71405;47.674;-2.050;2023-07-20T04:27:19;4.07;;;2.08;;
81934;SDS011;71405;47.674;-2.050;2023-07-20T04:29:45;4.50;;;2.10;;
81934;SDS011;71405;47.674;-2.050;2023-07-20T04:32:10;4.07;;;1.88;;
81934;SDS011;71405;47.674;-2.050;2023-07-20T04:34:36;3.78;;;1.98;;
81934;SDS011;71405;47.674;-2.050;2023-07-20T04:37:02;4.70;;;2.10;;
81934;SDS011;71405;47.674;-2.050;2023-07-20T04:39:29;7.60;;;2.75;;
81934;SDS011;71405;47.674;-2.050;2023-07-20T04:41:55;8.43;;;3.08;;
81934;SDS011;71405;47.674;-2.050;2023-07-20T04:44:21;7.82;;;4.80;;
81934;SDS011;71405;47.674;-2.050;2023-07-20T04:46:47;10.40;;;6.47;;
81934;SDS011;71405;47.674;-2.050;2023-07-20T04:49:12;13.25;;;8.90;;
81934;SDS011;71405;47.674;-2.050;2023-07-20T04:51:38;12.30;;;8.02;;
81934;SDS011;71405;47.674;-2.050;2023-07-20T04:54:04;11.27;;;7.47;;
81934;SDS011;71405;47.674;-2.050;2023-07-20T04:56:30;11.52;;;6.63;;
81934;SDS011;71405;47.674;-2.050;2023-07-20T04:58:55;11.48;;;6.88;;
81934;SDS011;71405;47.674;-2.050;2023-07-20T05:01:22;10.43;;;6.28;;
81934;SDS011;71405;47.674;-2.050;2023-07-20T05:03:48;10.40;;;6.43;;
81934;SDS011;71405;47.674;-2.050;2023-07-20T05:06:14;12.32;;;5.95;;
81934;SDS011;71405;47.674;-2.050;2023-07-20T05:08:40;10.75;;;5.45;;
81934;SDS011;71405;47.674;-2.050;2023-07-20T05:11:06;9.70;;;6.00;;
81934;SDS011;71405;47.674;-2.050;2023-07-20T05:13:32;15.73;;;5.53;;
81934;SDS011;71405;47.674;-2.050;2023-07-20T05:15:58;12.15;;;5.22;;
81934;SDS011;71405;47.674;-2.050;2023-07-20T05:18:24;10.55;;;5.43;;
81934;SDS011;71405;47.674;-2.050;2023-07-20T05:20:50;8.07;;;4.53;;
81934;SDS011;71405;47.674;-2.050;2023-07-20T05:23:17;12.23;;;4.65;;
81934;SDS011;71405;47.674;-2.050;2023-07-20T05:25:43;8.75;;;4.22;;
81934;SDS011;71405;47.674;-2.050;2023-07-20T05:28:09;8.68;;;4.25;;
81934;SDS011;71405;47.674;-2.050;2023-07-20T05:30:35;8.95;;;4.18;;
81934;SDS011;71405;47.674;-2.050;2023-07-20T05:33:01;7.82;;;4.20;;
81934;SDS011;71405;47.674;-2.050;2023-07-20T05:35:27;8.15;;;3.78;;
81934;SDS011;71405;47.674;-2.050;2023-07-20T05:37:52;8.07;;;3.92;;
81934;SDS011;71405;47.674;-2.050;2023-07-20T05:40:18;8.15;;;3.47;;
81934;SDS011;71405;47.674;-2.050;2023-07-20T05:42:45;21.42;;;8.93;;
81934;SDS011;71405;47.674;-2.050;2023-07-20T05:45:16;7.22;;;3.45;;
81934;SDS011;71405;47.674;-2.050;2023-07-20T05:47:42;9.13;;;4.25;;
81934;SDS011;71405;47.674;-2.050;2023-07-20T05:50:08;10.43;;;4.07;;
81934;SDS011;71405;47.674;-2.050;2023-07-20T05:52:35;29.60;;;25.58;;
81934;SDS011;71405;47.674;-2.050;2023-07-20T05:55:01;24.85;;;19.60;;
81934;SDS011;71405;47.674;-2.050;2023-07-20T05:57:26;19.00;;;14.00;;
81934;SDS011;71405;47.674;-2.050;2023-07-20T05:59:52;16.98;;;11.20;;
81934;SDS011;71405;47.674;-2.050;2023-07-20T06:02:18;14.23;;;10.93;;
81934;SDS011;71405;47.674;-2.050;2023-07-20T06:04:43;13.45;;;10.80;;
81934;SDS011;71405;47.674;-2.050;2023-07-20T06:07:10;15.15;;;10.63;;
81934;SDS011;71405;47.674;-2.050;2023-07-20T06:09:35;14.15;;;10.73;;
81934;SDS011;71405;47.674;-2.050;2023-07-20T06:12:01;14.80;;;10.68;;
81934;SDS011;71405;47.674;-2.050;2023-07-20T06:14:27;12.80;;;9.88;;
81934;SDS011;71405;47.674;-2.050;2023-07-20T06:16:52;14.32;;;10.00;;
81934;SDS011;71405;47.674;-2.050;2023-07-20T06:19:18;13.63;;;10.05;;
81934;SDS011;71405;47.674;-2.050;2023-07-20T21:51:29;19.40;;;14.30;;
81934;SDS011;71405;47.674;-2.050;2023-07-20T21:53:55;14.05;;;9.68;;
81934;SDS011;71405;47.674;-2.050;2023-07-20T21:56:21;12.38;;;9.38;;
81934;SDS011;71405;47.674;-2.050;2023-07-20T21:58:46;14.18;;;9.52;;
81934;SDS011;71405;47.674;-2.050;2023-07-20T22:01:12;13.57;;;8.05;;
81934;SDS011;71405;47.674;-2.050;2023-07-20T22:03:38;14.65;;;10.05;;
81934;SDS011;71405;47.674;-2.050;2023-07-20T22:06:03;14.68;;;10.80;;
81934;SDS011;71405;47.674;-2.050;2023-07-20T22:08:29;16.98;;;12.50;;
81934;SDS011;71405;47.674;-2.050;2023-07-20T22:10:55;14.68;;;10.90;;
81934;SDS011;71405;47.674;-2.050;2023-07-20T22:13:21;14.98;;;9.70;;
81934;SDS011;71405;47.674;-2.050;2023-07-20T22:15:47;13.48;;;9.50;;
81934;SDS011;71405;47.674;-2.050;2023-07-20T22:18:15;13.98;;;9.18;;
81934;SDS011;71405;47.674;-2.050;2023-07-20T22:20:41;14.00;;;10.75;;
81934;SDS011;71405;47.674;-2.050;2023-07-20T22:23:06;13.40;;;9.70;;
81934;SDS011;71405;47.674;-2.050;2023-07-20T22:25:32;14.65;;;9.68;;
81934;SDS011;71405;47.674;-2.050;2023-07-20T22:27:58;13.23;;;8.70;;
81934;SDS011;71405;47.674;-2.050;2023-07-20T22:30:23;12.65;;;8.45;;
81934;SDS011;71405;47.674;-2.050;2023-07-20T22:32:50;11.95;;;7.93;;
81934;SDS011;71405;47.674;-2.050;2023-07-20T22:35:16;13.10;;;9.02;;
81934;SDS011;71405;47.674;-2.050;2023-07-20T22:37:41;10.32;;;7.43;;
81934;SDS011;71405;47.674;-2.050;2023-07-20T22:40:07;11.10;;;7.05;;
81934;SDS011;71405;47.674;-2.050;2023-07-20T22:42:34;12.05;;;8.45;;
81934;SDS011;71405;47.674;-2.050;2023-07-20T22:45:01;12.05;;;7.95;;
81934;SDS011;71405;47.674;-2.050;2023-07-20T22:47:29;10.80;;;6.97;;
81934;SDS011;71405;47.674;-2.050;2023-07-20T22:49:55;9.80;;;6.88;;
81934;SDS011;71405;47.674;-2.050;2023-07-20T22:52:22;10.43;;;6.70;;
81934;SDS011;71405;47.674;-2.050;2023-07-20T22:54:48;11.60;;;7.47;;
81934;SDS011;71405;47.674;-2.050;2023-07-20T22:57:14;9.82;;;7.10;;
81934;SDS011;71405;47.674;-2.050;2023-07-20T22:59:40;10.30;;;6.82;;
81934;SDS011;71405;47.674;-2.050;2023-07-20T23:02:05;9.77;;;6.35;;
81934;SDS011;71405;47.674;-2.050;2023-07-20T23:04:33;9.55;;;6.30;;
81934;SDS011;71405;47.674;-2.050;2023-07-20T23:06:59;10.20;;;6.47;;
81934;SDS011;71405;47.674;-2.050;2023-07-20T23:09:25;10.18;;;6.40;;
81934;SDS011;71405;47.674;-2.050;2023-07-20T23:11:50;10.15;;;5.88;;
81934;SDS011;71405;47.674;-2.050;2023-07-20T23:14:17;9.70;;;5.90;;
81934;SDS011;71405;47.674;-2.050;2023-07-20T23:16:43;9.02;;;5.05;;
81934;SDS011;71405;47.674;-2.050;2023-07-20T23:19:08;8.63;;;5.03;;
81934;SDS011;71405;47.674;-2.050;2023-07-20T23:21:34;9.57;;;6.13;;
81934;SDS011;71405;47.674;-2.050;2023-07-20T23:24:01;9.07;;;5.05;;
81934;SDS011;71405;47.674;-2.050;2023-07-20T23:26:26;8.93;;;5.00;;
81934;SDS011;71405;47.674;-2.050;2023-07-20T23:28:52;8.32;;;5.32;;
81934;SDS011;71405;47.674;-2.050;2023-07-20T23:31:18;8.55;;;4.82;;
81934;SDS011;71405;47.674;-2.050;2023-07-20T23:33:44;9.48;;;4.90;;
81934;SDS011;71405;47.674;-2.050;2023-07-20T23:36:10;9.07;;;4.60;;
81934;SDS011;71405;47.674;-2.050;2023-07-20T23:38:36;8.13;;;4.93;;
81934;SDS011;71405;47.674;-2.050;2023-07-20T23:41:02;9.00;;;3.90;;
81934;SDS011;71405;47.674;-2.050;2023-07-20T23:43:32;8.02;;;4.25;;
81934;SDS011;71405;47.674;-2.050;2023-07-20T23:46:02;7.70;;;4.20;;
81934;SDS011;71405;47.674;-2.050;2023-07-20T23:48:33;6.50;;;3.88;;
81934;SDS011;71405;47.674;-2.050;2023-07-20T23:51:14;7.72;;;4.07;;
81934;SDS011;71405;47.674;-2.050;2023-07-20T23:53:43;7.25;;;4.18;;
81934;SDS011;71405;47.674;-2.050;2023-07-20T23:56:15;8.48;;;4.45;;
81934;SDS011;71405;47.674;-2.050;2023-07-20T23:58:41;7.55;;;3.95;;
